Weather reports worldwide

Advertisment
Serralta di S. Vito, Italy (16364): temperature & dewpoint: 16.09.2018 23:00:00 - 22.09.2018 23:00:00 (CEST)Serralta di S. Vito, Italy (16364): wind speed: 16.09.2018 23:00:00 - 22.09.2018 23:00:00 (CEST)Serralta di S. Vito, Italy (16364): wind direction: 16.09.2018 23:00:00 - 22.09.2018 23:00:00 (CEST)Serralta di S. Vito, Italy (16364): precipitation: 16.09.2018 23:00:00 - 22.09.2018 23:00:00 (CEST)
Date & Time tt [°C] td [°C] ff [km/h] ff [kn] dd rr [mm]
22.09.2018 23:00:00 16,4 14,2 4 2 W -
22.09.2018 22:00:00 16,6 14,2 4 2 NW -
22.09.2018 21:00:00 16,6 14,2 4 2 NW -
22.09.2018 20:00:00 16,7 13,9 4 2 W -
22.09.2018 19:00:00 18,6 16,3 0 0 N -
22.09.2018 18:00:00 20,0 17,5 5 3 W -
22.09.2018 17:00:00 19,6 17,1 4 2 WNW -
22.09.2018 16:00:00 19,6 17,1 8 4 SSE -
22.09.2018 15:00:00 20,5 17,6 9 5 S -
22.09.2018 14:00:00 19,8 16,8 8 4 SSE 0,0
22.09.2018 13:00:00 19,8 16,4 5 3 S -
22.09.2018 12:00:00 22,3 19,0 11 6 SE -
22.09.2018 11:00:00 21,3 18,2 9 5 ESE -
22.09.2018 10:00:00 19,7 17,2 9 5 ESE -
22.09.2018 09:00:00 18,0 15,6 2 1 W -
22.09.2018 08:00:00 16,7 14,3 5 3 E 0,0
22.09.2018 07:00:00 15,2 12,8 5 3 E -
22.09.2018 06:00:00 15,3 12,9 2 1 NE -
22.09.2018 05:00:00 15,1 12,8 5 3 SE -
22.09.2018 04:00:00 15,3 12,9 4 2 SSW -
22.09.2018 03:00:00 15,6 13,2 8 4 W -
22.09.2018 02:00:00 14,9 12,6 8 4 WSW 0,0
22.09.2018 01:00:00 15,6 13,2 5 3 WSW -
22.09.2018 00:00:00 15,4 13,0 11 6 S -
21.09.2018 23:00:00 15,4 13,0 11 6 SE -
21.09.2018 22:00:00 15,6 13,2 2 1 SSW -
21.09.2018 21:00:00 15,4 13,0 0 0 N -
21.09.2018 20:00:00 16,0 13,6 11 6 SE -
21.09.2018 19:00:00 16,2 13,8 5 3 ESE -
21.09.2018 18:00:00 17,0 14,8 4 2 WSW -
21.09.2018 17:00:00 17,9 15,5 15 8 SE -
21.09.2018 16:00:00 17,4 15,0 16 9 E -
21.09.2018 15:00:00 17,0 14,6 16 9 SE -
21.09.2018 14:00:00 17,4 15,7 21 11 SE -
21.09.2018 13:00:00 16,5 14,8 22 12 E -
21.09.2018 12:00:00 16,2 14,5 22 12 E -
21.09.2018 11:00:00 15,6 13,2 22 12 ESE -
21.09.2018 10:00:00 15,5 13,1 21 11 E -
21.09.2018 09:00:00 15,6 13,2 26 14 E -
21.09.2018 08:00:00 15,6 13,2 22 12 ESE -
21.09.2018 07:00:00 15,9 13,5 18 10 SE -
21.09.2018 06:00:00 15,5 13,1 18 10 ESE -
21.09.2018 05:00:00 15,2 12,8 21 11 E -
21.09.2018 04:00:00 15,8 13,4 21 11 E -
21.09.2018 03:00:00 15,9 13,5 21 11 E -
21.09.2018 02:00:00 15,6 13,2 21 11 SE 0,0
21.09.2018 01:00:00 15,3 12,8 16 9 E -
21.09.2018 00:00:00 15,6 12,8 15 8 E -
20.09.2018 23:00:00 15,8 12,8 21 11 E -
20.09.2018 22:00:00 15,4 12,5 18 10 E -
20.09.2018 21:00:00 15,6 12,5 15 8 E -
20.09.2018 20:00:00 15,4 13,4 13 7 E 0,0
20.09.2018 19:00:00 16,4 14,0 15 8 E -
20.09.2018 18:00:00 17,3 14,3 13 7 E -
20.09.2018 17:00:00 19,8 16,4 15 8 E -
20.09.2018 16:00:00 19,6 15,6 13 7 ENE -
20.09.2018 15:00:00 18,9 15,7 13 7 SE -
20.09.2018 14:00:00 20,1 15,9 16 9 SSE 0,0
20.09.2018 13:00:00 20,1 16,9 13 7 SSE -
20.09.2018 12:00:00 20,5 17,8 16 9 ESE -
20.09.2018 11:00:00 18,1 15,1 15 8 E -
20.09.2018 10:00:00 18,8 16,3 15 8 ESE -
20.09.2018 09:00:00 17,8 15,4 15 8 E -
20.09.2018 08:00:00 17,0 14,6 15 8 ESE 0,0
20.09.2018 07:00:00 16,3 14,2 15 8 ESE -
20.09.2018 06:00:00 16,4 14,2 15 8 SSE -
20.09.2018 05:00:00 16,6 13,8 15 8 ESE -
20.09.2018 04:00:00 17,2 14,0 15 8 E -
20.09.2018 03:00:00 17,5 13,5 13 7 E -
20.09.2018 02:00:00 18,0 13,8 11 6 ENE 0,0
20.09.2018 01:00:00 17,0 13,1 4 2 NE -
20.09.2018 00:00:00 15,2 11,4 9 5 W -
19.09.2018 23:00:00 18,0 13,0 8 4 W -
19.09.2018 22:00:00 17,5 14,5 5 3 NNW -
19.09.2018 21:00:00 16,4 13,6 13 7 W -
19.09.2018 20:00:00 16,6 14,0 13 7 W 0,0
19.09.2018 19:00:00 17,2 13,8 9 5 SSW -
19.09.2018 18:00:00 19,1 15,5 5 3 WSW -
19.09.2018 17:00:00 22,2 18,5 5 3 W -
19.09.2018 16:00:00 22,0 17,3 9 5 W -
19.09.2018 15:00:00 21,7 16,8 4 2 ENE -
19.09.2018 14:00:00 23,9 18,3 11 6 E 0,0
19.09.2018 13:00:00 24,0 18,3 9 5 SSE -
19.09.2018 12:00:00 22,0 16,0 15 8 SSE -
19.09.2018 11:00:00 22,3 16,3 16 9 ESE -
19.09.2018 10:00:00 19,6 15,4 15 8 E -
19.09.2018 09:00:00 17,9 11,6 15 8 E -
19.09.2018 08:00:00 17,4 10,5 9 5 ESE 0,0
19.09.2018 07:00:00 17,7 11,0 2 1 E -
19.09.2018 06:00:00 14,7 10,9 9 5 SSW -
19.09.2018 05:00:00 15,9 11,0 9 5 WSW -
19.09.2018 04:00:00 15,6 11,1 9 5 WSW -
19.09.2018 03:00:00 14,9 10,7 9 5 WSW -
19.09.2018 02:00:00 14,5 10,3 9 5 SW 0,0
19.09.2018 01:00:00 15,5 10,6 9 5 WSW -
19.09.2018 00:00:00 15,3 11,1 11 6 W -
18.09.2018 23:00:00 15,6 13,4 11 6 WSW -
18.09.2018 22:00:00 16,1 13,9 11 6 WSW -
18.09.2018 21:00:00 16,4 14,2 9 5 SW -
18.09.2018 20:00:00 16,1 13,3 8 4 SW 0,0
18.09.2018 19:00:00 17,6 14,6 4 2 SW -
18.09.2018 18:00:00 19,3 16,1 5 3 W -
18.09.2018 17:00:00 21,2 17,3 8 4 WSW -
18.09.2018 16:00:00 21,6 17,3 9 5 WNW -
18.09.2018 15:00:00 22,0 17,3 8 4 W -
18.09.2018 14:00:00 21,5 16,6 4 2 NE 0,0
18.09.2018 13:00:00 21,8 17,5 5 3 NNE -
18.09.2018 12:00:00 22,7 17,1 5 3 ESE -
18.09.2018 11:00:00 22,1 17,0 8 4 S -
18.09.2018 10:00:00 20,8 17,2 9 5 SE -
18.09.2018 09:00:00 19,4 16,7 9 5 SSE -
18.09.2018 08:00:00 17,2 14,6 8 4 SE 0,0
18.09.2018 07:00:00 16,1 13,1 8 4 E -
18.09.2018 06:00:00 16,4 13,2 5 3 E -
18.09.2018 05:00:00 16,8 13,8 4 2 W -
18.09.2018 04:00:00 16,4 14,3 5 3 NW -
18.09.2018 03:00:00 15,4 13,4 5 3 NW -
18.09.2018 02:00:00 15,2 13,0 9 5 WSW 0,0
18.09.2018 01:00:00 15,4 13,0 8 4 WSW -
18.09.2018 00:00:00 16,3 13,9 9 5 W -
17.09.2018 23:00:00 16,6 14,2 9 5 SW -
17.09.2018 22:00:00 16,2 14,0 8 4 WSW -
17.09.2018 21:00:00 17,0 14,6 8 4 WSW -
17.09.2018 20:00:00 17,5 14,7 5 3 WNW -
17.09.2018 19:00:00 18,1 14,9 2 1 W -
17.09.2018 18:00:00 19,0 16,0 5 3 S -
17.09.2018 17:00:00 19,7 17,4 4 2 SW -
17.09.2018 16:00:00 18,0 14,8 13 7 SE -
17.09.2018 15:00:00 21,1 18,2 4 2 SW -
17.09.2018 14:00:00 20,4 17,2 0 0 N -
17.09.2018 13:00:00 19,9 16,9 5 3 W -
17.09.2018 12:00:00 21,6 17,7 4 2 W -
17.09.2018 11:00:00 22,4 18,1 5 3 S -
17.09.2018 10:00:00 20,9 17,0 9 5 ESE -
17.09.2018 09:00:00 19,4 16,0 13 7 SE -
17.09.2018 08:00:00 17,7 15,4 8 4 E 0,0
17.09.2018 07:00:00 16,3 13,9 9 5 SSE -
17.09.2018 06:00:00 15,9 13,5 5 3 W -
17.09.2018 05:00:00 15,2 12,8 5 3 WSW -
17.09.2018 04:00:00 16,1 13,7 9 5 W -
17.09.2018 03:00:00 15,9 13,7 5 3 SW -
17.09.2018 02:00:00 16,0 13,4 5 3 SW 0,0
17.09.2018 01:00:00 17,1 14,8 8 4 ENE -
17.09.2018 00:00:00 15,9 13,5 5 3 WSW -
16.09.2018 23:00:00 16,0 13,6 5 3 WNW -

tt = temperature
td = dewpoint
ff = wind speed
dd = wind direction
rr = precipitation

Next stations